Time;durP1;ratioP1;P1;durP2;ratioP2;P2;SDS_P1;SDS_P2;PMS_P1;PMS_P2;Temp;Humidity;BMP_temperature;BMP_pressure;BME280_temperature;BME280_humidity;BME280_pressure;Samples;Min_cycle;Max_cycle;Signal;HPM_P1;HPM_P2
2022/05/13 00:01:05;;;;;;;8.40;5.45;;;;;;;20.58;100.00;100358.72;4973262;28;20138;-63
2022/05/13 00:03:32;;;;;;;12.40;5.60;;;;;;;20.60;100.00;100359.50;4975703;28;20086;-63
2022/05/13 00:05:57;;;;;;;8.63;5.75;;;;;;;20.57;100.00;100360.59;4970041;28;20054;-63
2022/05/13 00:08:23;;;;;;;11.10;5.40;;;;;;;20.56;100.00;100358.00;4972935;28;20054;-63
2022/05/13 00:10:48;;;;;;;13.35;5.97;;;;;;;20.51;100.00;100355.56;4973131;28;20038;-63
2022/05/13 00:13:14;;;;;;;10.50;5.70;;;;;;;20.50;100.00;100348.44;4972656;28;20394;-63
2022/05/13 00:15:44;;;;;;;11.63;5.10;;;;;;;20.47;100.00;100354.06;4972872;28;20034;-63
2022/05/13 00:18:10;;;;;;;8.38;5.50;;;;;;;20.47;100.00;100354.06;4956961;28;20038;-63
2022/05/13 00:20:36;;;;;;;14.70;5.70;;;;;;;20.50;100.00;100355.69;4958427;28;20039;-63
2022/05/13 00:23:02;;;;;;;11.63;5.72;;;;;;;20.44;100.00;100348.88;4975221;28;20031;-63
2022/05/13 00:25:30;;;;;;;9.98;6.03;;;;;;;20.43;100.00;100352.53;4972856;28;20160;-63
2022/05/13 00:27:59;;;;;;;10.57;5.75;;;;;;;20.45;100.00;100347.91;4972382;28;20371;-63
2022/05/13 00:30:26;;;;;;;10.73;6.03;;;;;;;20.44;100.00;100348.00;4972611;28;20026;-63
2022/05/13 00:32:52;;;;;;;7.85;5.03;;;;;;;20.41;100.00;100351.75;4972684;28;20056;-63
2022/05/13 00:35:19;;;;;;;9.73;5.60;;;;;;;20.40;100.00;100357.28;4972445;28;20129;-63
2022/05/13 00:37:45;;;;;;;11.88;6.18;;;;;;;20.42;100.00;100349.94;4972548;28;20035;-63
2022/05/13 00:40:12;;;;;;;9.57;5.80;;;;;;;20.41;100.00;100359.88;4972584;28;20090;-63
2022/05/13 00:42:37;;;;;;;9.48;6.13;;;;;;;20.34;100.00;100360.41;4972176;28;20501;-63
2022/05/13 00:45:04;;;;;;;9.10;5.72;;;;;;;20.27;100.00;100359.94;4972485;28;20105;-63
2022/05/13 00:47:30;;;;;;;8.55;6.00;;;;;;;20.18;100.00;100367.81;4972230;28;20130;-63
2022/05/13 00:49:58;;;;;;;9.98;6.53;;;;;;;20.17;100.00;100369.63;4972395;28;20446;-63
2022/05/13 00:52:24;;;;;;;10.20;6.35;;;;;;;20.17;100.00;100377.72;4953089;29;20106;-63
2022/05/13 00:54:50;;;;;;;9.80;6.40;;;;;;;20.14;100.00;100361.69;4952662;29;20039;-63
2022/05/13 00:57:15;;;;;;;11.38;6.25;;;;;;;20.12;100.00;100363.63;4953253;29;20102;-63
2022/05/13 00:59:43;;;;;;;10.90;5.93;;;;;;;20.13;100.00;100383.41;4952145;29;20487;-61
2022/05/13 01:02:09;;;;;;;8.75;4.78;;;;;;;19.97;100.00;100377.25;4952163;29;20086;-61
2022/05/13 01:04:37;;;;;;;9.85;4.28;;;;;;;19.98;100.00;100352.88;4951355;29;20031;-62
2022/05/13 01:07:08;;;;;;;8.15;4.60;;;;;;;19.95;100.00;100355.75;4951553;29;20482;-62
2022/05/13 01:09:38;;;;;;;7.50;4.72;;;;;;;19.88;100.00;100356.28;4951194;29;20479;-61
2022/05/13 01:12:10;;;;;;;8.95;4.18;;;;;;;19.70;100.00;100361.03;4951759;29;20126;-61
2022/05/13 01:14:40;;;;;;;10.95;4.32;;;;;;;19.69;100.00;100367.38;4952257;29;20360;-61
2022/05/13 01:20:14;;;;;;;6.82;4.00;;;;;;;19.61;100.00;100377.81;4974716;28;20386;-61
2022/05/13 01:22:44;;;;;;;8.10;3.72;;;;;;;19.59;100.00;100377.03;4971931;28;20125;-61
2022/05/13 01:25:12;;;;;;;7.28;3.67;;;;;;;19.57;100.00;100369.03;4971713;28;20327;-61
2022/05/13 01:27:40;;;;;;;5.70;3.35;;;;;;;19.59;100.00;100368.94;4972360;28;20026;-61
2022/05/13 01:30:06;;;;;;;5.55;3.22;;;;;;;19.54;100.00;100357.56;4971621;28;20110;-61
2022/05/13 01:32:32;;;;;;;8.88;3.88;;;;;;;19.50;100.00;100364.97;4971708;28;20157;-60
2022/05/13 01:34:57;;;;;;;10.63;4.25;;;;;;;19.50;100.00;100369.53;4971570;28;20427;-60
2022/05/13 01:37:23;;;;;;;8.63;3.72;;;;;;;19.53;100.00;100375.59;4971206;28;20072;-60
2022/05/13 01:39:48;;;;;;;9.43;3.70;;;;;;;19.49;100.00;100379.44;4971475;28;20110;-60
2022/05/13 01:42:13;;;;;;;7.97;3.63;;;;;;;19.41;100.00;100373.69;4973818;28;20081;-60
2022/05/13 01:44:39;;;;;;;9.65;3.65;;;;;;;19.30;100.00;100367.22;4973657;28;20450;-60
2022/05/13 01:47:04;;;;;;;6.85;3.42;;;;;;;19.17;100.00;100363.53;4973556;28;20054;-60
2022/05/13 01:49:30;;;;;;;11.10;3.42;;;;;;;19.11;100.00;100361.22;4976219;28;20045;-60
2022/05/13 01:51:55;;;;;;;5.38;2.63;;;;;;;19.12;100.00;100354.84;4973707;28;20027;-60
2022/05/13 01:54:22;;;;;;;8.95;2.80;;;;;;;19.19;100.00;100369.69;4975525;28;20134;-60
2022/05/13 01:56:47;;;;;;;6.93;3.30;;;;;;;19.22;100.00;100364.09;4975413;28;20034;-60
2022/05/13 01:59:12;;;;;;;8.23;3.55;;;;;;;19.15;100.00;100371.72;4974844;28;20049;-60
2022/05/13 02:01:38;;;;;;;8.05;3.72;;;;;;;19.10;100.00;100370.25;4975294;28;20466;-60
2022/05/13 02:04:03;;;;;;;6.88;3.38;;;;;;;19.01;100.00;100370.84;4975318;28;20035;-60
2022/05/13 02:06:29;;;;;;;6.97;2.85;;;;;;;18.99;100.00;100375.44;4975224;28;20034;-60
2022/05/13 02:08:57;;;;;;;7.85;3.08;;;;;;;19.01;100.00;100368.13;4975048;28;20030;-60
2022/05/13 02:11:24;;;;;;;12.98;3.30;;;;;;;18.96;100.00;100372.94;4977866;28;20060;-60
2022/05/13 02:13:51;;;;;;;5.82;3.30;;;;;;;18.98;100.00;100376.38;4975320;28;20041;-60
2022/05/13 02:16:17;;;;;;;7.13;2.95;;;;;;;19.02;100.00;100367.16;4974026;28;20027;-60
2022/05/13 02:18:43;;;;;;;7.53;3.03;;;;;;;18.93;100.00;100356.97;4955867;29;20114;-60
2022/05/13 02:21:09;;;;;;;5.72;2.83;;;;;;;18.95;100.00;100365.78;4965315;28;20486;-60
2022/05/13 02:23:35;;;;;;;6.07;3.05;;;;;;;18.90;100.00;100359.81;4975057;28;20051;-60
2022/05/13 02:26:06;;;;;;;6.78;3.13;;;;;;;18.89;100.00;100366.19;4977434;28;20030;-60
2022/05/13 02:28:33;;;;;;;10.48;3.42;;;;;;;18.73;100.00;100357.28;4975292;28;20106;-60
2022/05/13 02:30:59;;;;;;;4.78;2.80;;;;;;;18.67;100.00;100346.88;4975138;28;20033;-60
2022/05/13 02:33:25;;;;;;;6.82;3.00;;;;;;;18.66;100.00;100354.09;4974984;28;20026;-60
2022/05/13 02:35:50;;;;;;;5.25;2.88;;;;;;;18.62;100.00;100354.34;4974691;28;20122;-60
2022/05/13 02:38:16;;;;;;;9.23;3.00;;;;;;;18.56;100.00;100347.53;4974788;28;20102;-60
2022/05/13 02:43:26;;;;;;;5.95;3.45;;;;;;;18.61;100.00;100355.31;4974634;28;20046;-60
2022/05/13 02:45:52;;;;;;;7.80;3.15;;;;;;;18.69;100.00;100355.72;4974371;28;20022;-60
2022/05/13 02:48:18;;;;;;;6.82;3.03;;;;;;;18.75;100.00;100352.66;4974613;28;20117;-60
2022/05/13 02:50:43;;;;;;;5.82;2.67;;;;;;;18.74;100.00;100361.72;4974451;28;20038;-60
2022/05/13 02:53:08;;;;;;;7.10;3.28;;;;;;;18.76;100.00;100359.81;4974044;28;20027;-60
2022/05/13 02:55:34;;;;;;;6.68;3.13;;;;;;;18.81;100.00;100365.78;4974161;28;20022;-60
2022/05/13 02:58:00;;;;;;;7.05;3.67;;;;;;;18.84;100.00;100353.00;4974363;28;20030;-60
2022/05/13 03:00:26;;;;;;;7.57;3.15;;;;;;;18.87;100.00;100351.91;4974430;28;20035;-60
2022/05/13 03:02:51;;;;;;;6.18;3.60;;;;;;;18.87;100.00;100357.31;4974267;28;20049;-60
2022/05/13 03:05:16;;;;;;;9.77;3.28;;;;;;;18.77;100.00;100351.63;4974157;28;20121;-60
2022/05/13 03:07:42;;;;;;;8.60;4.05;;;;;;;18.71;100.00;100361.91;4974506;28;20397;-60
2022/05/13 03:10:08;;;;;;;6.82;3.25;;;;;;;18.60;100.00;100353.59;4974190;28;20046;-60
2022/05/13 03:12:35;;;;;;;8.52;2.97;;;;;;;18.55;100.00;100347.63;4973866;28;20038;-60
2022/05/13 03:15:01;;;;;;;5.65;3.10;;;;;;;18.54;100.00;100345.88;4973962;28;20453;-60
2022/05/13 03:17:27;;;;;;;6.50;3.50;;;;;;;18.55;100.00;100340.38;4985776;28;20026;-60
2022/05/13 03:19:52;;;;;;;7.13;3.65;;;;;;;18.61;100.00;100328.38;4993453;28;20038;-60
2022/05/13 03:22:17;;;;;;;5.68;2.80;;;;;;;18.57;100.00;100332.22;4974352;28;20043;-60
2022/05/13 03:24:43;;;;;;;6.07;3.35;;;;;;;18.62;100.00;100343.56;4973031;28;20783;-60
2022/05/13 03:27:08;;;;;;;7.68;3.60;;;;;;;18.64;100.00;100347.94;4971703;28;20027;-61
2022/05/13 03:29:35;;;;;;;7.20;3.30;;;;;;;18.58;100.00;100344.75;4972264;28;20069;-60
2022/05/13 03:32:04;;;;;;;7.78;3.50;;;;;;;18.66;100.00;100353.22;4972382;28;20489;-61
2022/05/13 03:34:29;;;;;;;5.50;2.97;;;;;;;18.67;100.00;100345.03;4972249;28;20437;-61
2022/05/13 03:36:54;;;;;;;6.60;3.70;;;;;;;18.64;100.00;100347.06;4972139;28;20113;-61
2022/05/13 03:39:20;;;;;;;10.43;4.57;;;;;;;18.62;100.00;100351.66;4972597;28;20029;-61
2022/05/13 03:41:45;;;;;;;8.23;3.20;;;;;;;18.60;100.00;100340.97;4972851;28;20568;-61
2022/05/13 03:44:11;;;;;;;5.88;3.08;;;;;;;18.59;100.00;100339.25;4973620;28;20077;-61
2022/05/13 03:46:36;;;;;;;8.57;3.50;;;;;;;18.67;100.00;100344.16;4973429;28;20077;-60
2022/05/13 03:49:02;;;;;;;7.90;4.13;;;;;;;18.76;100.00;100349.03;4973524;28;20121;-60
2022/05/13 03:51:28;;;;;;;6.10;3.75;;;;;;;18.76;100.00;100349.91;4973200;28;20580;-61
2022/05/13 03:53:54;;;;;;;5.97;3.65;;;;;;;18.80;100.00;100346.03;4973443;28;20602;-61
2022/05/13 03:56:19;;;;;;;4.70;3.00;;;;;;;18.72;100.00;100353.72;4973487;28;20117;-61
2022/05/13 03:58:45;;;;;;;7.90;3.50;;;;;;;18.77;100.00;100351.63;4975933;28;20126;-61
2022/05/13 04:01:10;;;;;;;7.97;3.60;;;;;;;18.80;100.00;100350.56;4975584;28;20027;-61
2022/05/13 04:03:36;;;;;;;6.35;3.88;;;;;;;18.74;100.00;100343.72;4972564;28;20358;-61
2022/05/13 04:08:57;;;;;;;8.20;3.78;;;;;;;18.85;100.00;100343.94;4973144;28;20746;-60
2022/05/13 04:11:36;;;;;;;9.32;3.47;;;;;;;18.90;100.00;100357.13;4972985;28;20033;-60
2022/05/13 04:16:45;;;;;;;5.68;3.67;;;;;;;19.00;100.00;100363.69;4968296;28;20030;-60
2022/05/13 04:19:12;;;;;;;6.03;3.47;;;;;;;18.92;100.00;100356.09;4957715;28;20026;-61
2022/05/13 04:21:40;;;;;;;6.35;3.80;;;;;;;18.97;100.00;100353.09;4973914;28;20038;-61
2022/05/13 04:24:08;;;;;;;6.57;3.75;;;;;;;18.95;100.00;100358.59;4972814;28;20545;-61
2022/05/13 04:26:34;;;;;;;8.00;3.60;;;;;;;18.94;100.00;100353.28;4972840;28;20042;-61
2022/05/13 04:29:00;;;;;;;6.60;3.45;;;;;;;18.98;100.00;100366.47;4973002;28;20031;-61
2022/05/13 04:31:28;;;;;;;9.63;3.65;;;;;;;18.99;100.00;100379.00;4972421;28;20085;-61
2022/05/13 04:33:54;;;;;;;6.57;3.38;;;;;;;19.02;100.00;100369.84;4970063;28;20030;-61
2022/05/13 04:36:21;;;;;;;8.25;3.40;;;;;;;19.07;100.00;100386.63;4969672;28;20118;-61
2022/05/13 04:38:47;;;;;;;7.47;3.50;;;;;;;19.05;100.00;100383.16;4969173;28;20023;-61
2022/05/13 04:43:59;;;;;;;7.07;3.42;;;;;;;18.95;100.00;100392.75;4968143;28;20102;-60
2022/05/13 04:46:25;;;;;;;9.32;3.60;;;;;;;18.94;100.00;100396.41;4968620;28;20078;-60
2022/05/13 04:48:53;;;;;;;5.93;3.42;;;;;;;18.91;100.00;100399.31;4970117;28;20054;-60
2022/05/13 04:51:20;;;;;;;8.90;3.38;;;;;;;18.90;100.00;100400.25;4970807;28;20034;-60
2022/05/13 04:53:50;;;;;;;8.98;3.45;;;;;;;18.85;100.00;100405.06;4971040;28;20037;-60
2022/05/13 04:56:16;;;;;;;7.40;3.70;;;;;;;18.80;100.00;100404.47;4972529;28;20022;-60
2022/05/13 04:58:42;;;;;;;11.07;3.80;;;;;;;18.74;100.00;100385.97;4972154;28;20429;-60
2022/05/13 05:01:09;;;;;;;8.38;4.03;;;;;;;18.79;100.00;100414.41;4972397;28;20034;-60
2022/05/13 05:03:36;;;;;;;6.32;3.88;;;;;;;18.83;100.00;100409.69;4972347;28;20118;-60
2022/05/13 05:06:03;;;;;;;11.25;4.35;;;;;;;18.86;100.00;100414.91;4972292;28;20398;-60
2022/05/13 05:08:29;;;;;;;9.30;4.68;;;;;;;18.91;100.00;100410.09;4972248;28;20026;-60
2022/05/13 05:10:56;;;;;;;13.20;5.43;;;;;;;18.88;100.00;100418.38;4972058;28;20085;-60
2022/05/13 05:13:28;;;;;;;14.20;7.20;;;;;;;18.88;100.00;100413.81;4972250;28;20644;-60
2022/05/13 05:15:55;;;;;;;17.17;7.43;;;;;;;18.92;100.00;100414.50;4972302;28;20026;-60
2022/05/13 05:18:20;;;;;;;14.95;4.90;;;;;;;18.98;100.00;100414.13;4962817;28;20034;-61
2022/05/13 05:20:47;;;;;;;10.75;6.07;;;;;;;19.01;100.00;100413.97;4972056;28;20034;-61
2022/05/13 05:23:23;;;;;;;16.60;7.00;;;;;;;19.05;100.00;100415.50;4971983;28;20078;-60
2022/05/13 05:25:49;;;;;;;9.32;3.95;;;;;;;18.96;100.00;100408.00;4970692;28;20054;-60
2022/05/13 05:28:14;;;;;;;12.07;4.25;;;;;;;19.07;100.00;100429.75;4970097;28;20093;-60
2022/05/13 05:30:41;;;;;;;12.93;5.00;;;;;;;19.07;100.00;100429.75;4970413;28;20033;-60
2022/05/13 05:33:08;;;;;;;8.88;4.40;;;;;;;18.99;100.00;100422.16;4970180;28;20105;-60
2022/05/13 05:35:34;;;;;;;10.73;4.88;;;;;;;19.04;100.00;100419.16;4970240;28;20035;-60
2022/05/13 05:38:00;;;;;;;7.05;3.70;;;;;;;19.09;100.00;100427.84;4970010;28;20075;-60
2022/05/13 05:40:26;;;;;;;8.95;3.90;;;;;;;19.12;100.00;100417.75;4971582;28;20105;-60
2022/05/13 05:42:51;;;;;;;7.68;3.67;;;;;;;19.11;100.00;100431.34;4971998;28;20402;-60
2022/05/13 05:45:19;;;;;;;8.05;3.65;;;;;;;19.10;100.00;100432.28;4971898;28;20085;-60
2022/05/13 05:47:45;;;;;;;7.35;3.58;;;;;;;19.14;100.00;100425.75;4971022;28;20438;-61
2022/05/13 05:50:17;;;;;;;7.35;3.50;;;;;;;19.16;100.00;100423.81;4971947;28;20485;-61
2022/05/13 05:52:43;;;;;;;7.30;3.38;;;;;;;19.16;100.00;100440.00;4974496;28;20086;-60
2022/05/13 05:58:06;;;;;;;8.20;4.38;;;;;;;19.24;100.00;100445.81;4971740;28;20061;-60
2022/05/13 06:00:35;;;;;;;6.88;3.78;;;;;;;19.25;100.00;100444.81;4971895;28;20026;-60
2022/05/13 06:03:01;;;;;;;8.43;3.33;;;;;;;19.29;100.00;100449.13;4958913;28;20031;-60
2022/05/13 06:05:27;;;;;;;12.00;4.25;;;;;;;19.29;100.00;100454.50;4952617;29;20091;-61
2022/05/13 06:07:58;;;;;;;7.05;3.45;;;;;;;19.37;100.00;100461.16;4952236;29;20033;-61
2022/05/13 06:10:25;;;;;;;9.02;4.00;;;;;;;19.36;100.00;100462.13;4954634;28;20390;-61
2022/05/13 06:12:50;;;;;;;10.63;4.05;;;;;;;19.39;100.00;100458.34;4950392;28;20039;-61
2022/05/13 06:15:17;;;;;;;7.72;3.33;;;;;;;19.42;100.00;100458.19;4956428;28;20401;-61
2022/05/13 06:17:54;;;;;;;4.78;3.08;;;;;;;19.41;100.00;100446.53;4967438;28;20033;-61
2022/05/13 06:20:22;;;;;;;6.93;3.85;;;;;;;19.54;100.00;100449.31;4971049;28;20038;-60
2022/05/13 06:22:47;;;;;;;7.15;3.45;;;;;;;19.54;100.00;100460.09;4971605;28;20046;-60
2022/05/13 06:25:16;;;;;;;7.55;3.65;;;;;;;19.53;100.00;100451.16;4971550;28;20035;-60
2022/05/13 06:27:44;;;;;;;8.43;3.60;;;;;;;19.58;99.08;100469.75;4975918;28;20064;-60
2022/05/13 06:30:15;;;;;;;7.97;4.00;;;;;;;19.68;100.00;100468.22;4974518;28;20054;-60
2022/05/13 06:32:41;;;;;;;7.28;4.07;;;;;;;19.73;99.13;100459.84;4973843;28;20030;-61
2022/05/13 06:35:08;;;;;;;6.72;3.70;;;;;;;19.80;98.31;100480.97;4962926;28;20038;-60
2022/05/13 06:37:33;;;;;;;9.07;3.40;;;;;;;19.81;97.72;100473.72;4955652;29;20023;-60
2022/05/13 06:39:59;;;;;;;5.55;3.08;;;;;;;19.83;95.89;100477.19;4955530;29;20492;-60
2022/05/13 06:42:25;;;;;;;7.57;2.92;;;;;;;19.87;94.67;100478.75;4965843;28;20046;-60
2022/05/13 06:44:50;;;;;;;6.57;2.67;;;;;;;19.88;93.15;100477.78;4974316;28;20081;-60
2022/05/13 06:47:16;;;;;;;7.00;2.33;;;;;;;19.93;92.25;100479.22;4971163;28;20117;-60
2022/05/13 06:49:41;;;;;;;7.13;2.63;;;;;;;19.93;90.92;100489.16;4965925;28;20082;-60
2022/05/13 06:52:08;;;;;;;8.35;2.78;;;;;;;20.05;90.48;100491.09;4974068;28;20042;-60
2022/05/13 06:54:34;;;;;;;5.38;2.53;;;;;;;20.10;89.22;100494.34;4974140;28;20125;-60
2022/05/13 06:56:59;;;;;;;7.82;3.13;;;;;;;20.16;89.54;100493.97;4972759;28;20026;-60
2022/05/13 06:59:25;;;;;;;5.40;2.33;;;;;;;20.14;89.44;100499.47;4955024;29;20109;-60
2022/05/13 07:01:50;;;;;;;4.25;2.28;;;;;;;20.12;89.77;100501.38;4954949;29;20023;-61
2022/05/13 07:04:16;;;;;;;6.20;2.60;;;;;;;20.20;90.80;100511.72;4954761;29;20392;-60
2022/05/13 07:06:41;;;;;;;5.35;2.63;;;;;;;20.23;89.46;100508.84;4955061;29;20062;-60
2022/05/13 07:09:07;;;;;;;4.68;2.58;;;;;;;20.28;89.67;100512.13;4972446;28;20555;-60
2022/05/13 07:11:34;;;;;;;6.47;2.30;;;;;;;20.21;86.57;100518.88;4974162;28;20086;-61
2022/05/13 07:13:59;;;;;;;5.03;2.20;;;;;;;20.32;86.12;100517.22;4973934;28;20093;-61
2022/05/13 07:16:25;;;;;;;5.22;2.50;;;;;;;20.30;83.55;100518.25;4971991;28;20139;-61
2022/05/13 07:18:50;;;;;;;7.22;2.15;;;;;;;20.36;83.90;100518.75;4968236;28;20110;-61
2022/05/13 07:21:17;;;;;;;13.95;4.07;;;;;;;20.41;83.68;100510.34;4973862;28;20218;-61
2022/05/13 07:23:42;;;;;;;6.78;2.05;;;;;;;20.53;82.09;100518.53;4973344;28;20030;-61
2022/05/13 07:26:09;;;;;;;5.53;2.20;;;;;;;20.60;81.72;100517.16;4974393;28;20126;-61
2022/05/13 07:28:35;;;;;;;4.20;2.28;;;;;;;20.79;83.01;100506.84;4986329;28;20041;-61
2022/05/13 07:31:01;;;;;;;18.08;2.40;;;;;;;21.02;81.52;100520.72;4973745;28;20049;-61
2022/05/13 07:33:29;;;;;;;9.38;2.22;;;;;;;21.14;79.24;100519.88;4970458;28;20031;-61
2022/05/13 07:35:55;;;;;;;9.43;2.85;;;;;;;21.19;80.34;100532.13;4974012;28;20030;-61
2022/05/13 07:38:20;;;;;;;3.75;1.77;;;;;;;21.15;77.61;100535.16;4972808;28;20367;-61
2022/05/13 07:43:30;;;;;;;3.90;1.98;;;;;;;21.11;76.50;100544.41;4973175;28;20050;-61
2022/05/13 07:45:55;;;;;;;5.85;2.25;;;;;;;21.09;77.22;100546.38;4972493;28;20042;-61
2022/05/13 07:48:21;;;;;;;6.05;2.25;;;;;;;21.07;76.71;100542.91;4972961;28;20031;-61
2022/05/13 07:50:46;;;;;;;5.88;2.33;;;;;;;21.09;77.98;100551.81;4972304;28;20409;-61
2022/05/13 07:53:12;;;;;;;4.53;1.95;;;;;;;21.13;77.52;100550.59;4973657;28;20529;-61
2022/05/13 07:55:37;;;;;;;4.97;2.35;;;;;;;21.05;77.12;100548.44;4973197;28;20557;-61
2022/05/13 07:58:03;;;;;;;3.40;1.75;;;;;;;21.12;77.04;100551.59;4972838;28;20027;-61
2022/05/13 08:00:32;;;;;;;5.53;2.35;;;;;;;21.26;79.06;100546.09;4972631;28;20488;-61
2022/05/13 08:03:04;;;;;;;6.55;2.17;;;;;;;21.31;77.80;100554.78;4973106;28;20085;-61
2022/05/13 08:05:40;;;;;;;7.10;2.25;;;;;;;21.31;75.43;100555.66;4970994;28;20077;-61
2022/05/13 08:08:15;;;;;;;3.38;2.00;;;;;;;21.43;75.65;100556.66;4954755;28;20041;-61
2022/05/13 08:10:48;;;;;;;6.65;2.13;;;;;;;21.56;76.01;100554.84;4973117;28;20107;-61
2022/05/13 08:13:14;;;;;;;9.10;2.20;;;;;;;21.69;75.95;100559.31;4972996;28;20041;-61
2022/05/13 08:15:40;;;;;;;4.85;2.22;;;;;;;21.72;71.72;100555.50;4972728;28;20030;-62
2022/05/13 08:18:06;;;;;;;4.55;1.88;;;;;;;21.88;73.12;100559.75;4957589;28;20138;-61
2022/05/13 08:20:32;;;;;;;5.22;1.90;;;;;;;21.98;71.28;100555.44;4966310;28;20039;-61
2022/05/13 08:22:57;;;;;;;7.05;1.98;;;;;;;22.06;71.36;100552.16;4972704;28;20039;-61
2022/05/13 08:25:24;;;;;;;3.55;2.08;;;;;;;22.34;71.54;100554.63;4972654;28;20034;-61
2022/05/13 08:27:49;;;;;;;6.82;1.88;;;;;;;22.46;68.44;100550.16;4974342;28;20082;-61
2022/05/13 08:30:17;;;;;;;6.20;1.77;;;;;;;22.55;66.90;100555.84;4972498;28;20510;-61
2022/05/13 08:32:42;;;;;;;5.88;1.75;;;;;;;22.74;66.11;100558.91;4972653;28;20023;-61
2022/05/13 08:35:08;;;;;;;6.00;1.83;;;;;;;22.92;65.76;100554.84;4972903;28;20031;-61
2022/05/13 08:38:01;;;;;;;6.15;2.28;;;;;;;23.09;63.96;100551.75;4972561;28;20031;-61
2022/05/13 08:40:49;;;;;;;8.55;2.13;;;;;;;23.19;63.00;100558.19;4971691;28;20038;-62
2022/05/13 08:43:19;;;;;;;3.10;1.60;;;;;;;23.48;60.25;100564.13;4972848;28;20134;-62
2022/05/13 08:45:53;;;;;;;4.20;1.73;;;;;;;23.96;58.45;100556.72;4972411;28;20588;-62
2022/05/13 08:48:32;;;;;;;4.22;2.40;;;;;;;24.82;55.37;100561.47;4952638;29;20549;-63
2022/05/13 08:51:14;;;;;;;5.40;1.77;;;;;;;25.75;52.28;100550.72;4966665;28;20058;-63
2022/05/13 08:53:52;;;;;;;5.68;1.85;;;;;;;26.13;49.08;100552.00;4969304;28;20518;-63
2022/05/13 08:56:29;;;;;;;2.10;1.15;;;;;;;26.75;46.85;100556.31;4969734;28;20027;-63
2022/05/13 08:59:01;;;;;;;6.00;1.52;;;;;;;27.18;45.20;100555.97;4969822;28;20482;-63
2022/05/13 09:01:35;;;;;;;2.70;1.00;;;;;;;27.04;43.98;100556.38;4970143;28;20023;-63
2022/05/13 09:04:09;;;;;;;2.90;1.00;;;;;;;26.96;43.43;100561.69;4971562;28;20027;-63
2022/05/13 09:06:50;;;;;;;2.78;0.93;;;;;;;27.20;43.55;100546.63;4969477;28;20089;-63
2022/05/13 09:09:16;;;;;;;3.17;0.90;;;;;;;27.38;41.08;100555.00;4968382;28;20026;-63
2022/05/13 09:11:52;;;;;;;4.43;1.05;;;;;;;27.51;42.51;100561.06;4969093;28;20035;-63
2022/05/13 09:14:48;;;;;;;3.13;0.90;;;;;;;27.29;42.87;100564.06;4969311;28;20033;-63
2022/05/13 09:17:32;;;;;;;5.32;1.20;;;;;;;27.37;42.62;100564.22;4972386;28;20489;-63
2022/05/13 09:20:00;;;;;;;3.42;1.30;;;;;;;27.62;42.34;100569.09;4971874;28;20201;-63
2022/05/13 09:22:52;;;;;;;3.33;0.90;;;;;;;27.68;40.92;100557.56;4971958;28;20027;-64
2022/05/13 09:25:46;;;;;;;2.58;0.93;;;;;;;28.10;41.69;100569.94;4970591;28;20034;-64
2022/05/13 09:28:13;;;;;;;;;;;;;;;28.26;40.13;100564.69;4969268;28;20126;-66
2022/05/13 09:30:47;;;;;;;1.50;0.80;;;;;;;28.17;38.62;100570.19;4972607;28;19961;-66
2022/05/13 09:33:34;;;;;;;4.47;0.90;;;;;;;28.01;40.63;100570.81;4970589;28;20027;-67
2022/05/13 09:36:21;;;;;;;5.47;1.40;;;;;;;28.56;40.38;100560.88;4969584;28;20482;-66
2022/05/13 09:39:01;;;;;;;3.25;0.88;;;;;;;28.29;39.83;100563.53;4968494;28;20031;-66
2022/05/13 09:41:29;;;;;;;3.22;1.17;;;;;;;28.53;39.53;100571.25;4970856;28;20078;-66
2022/05/13 09:43:57;;;;;;;4.90;1.17;;;;;;;28.88;39.56;100566.72;4966037;28;20011;-67
2022/05/13 09:46:40;;;;;;;3.05;0.80;;;;;;;29.15;39.01;100566.75;4968980;28;20462;-67
2022/05/13 09:49:17;;;;;;;3.03;1.10;;;;;;;28.63;37.85;100577.56;4974114;28;20023;-66
2022/05/13 09:51:55;;;;;;;3.75;0.95;;;;;;;27.81;39.95;100574.53;4988710;28;20108;-66
2022/05/13 09:54:25;;;;;;;3.30;1.10;;;;;;;27.43;41.04;100571.81;4986893;28;20025;-66
2022/05/13 09:57:11;;;;;;;4.57;1.45;;;;;;;26.86;40.42;100574.44;4984013;28;20450;-66
2022/05/13 09:59:54;;;;;;;7.00;1.00;;;;;;;26.36;41.85;100580.84;4971641;28;20045;-66
2022/05/13 10:02:22;;;;;;;3.55;1.40;;;;;;;26.02;42.24;100572.03;4973731;28;20034;-67
2022/05/13 10:04:53;;;;;;;3.70;1.10;;;;;;;26.18;43.06;100568.84;4975195;28;20023;-68
2022/05/13 10:07:19;;;;;;;3.53;1.00;;;;;;;26.26;43.28;100571.75;4975371;28;20037;-67
2022/05/13 10:15:31;;;;;;;3.78;0.68;;;;;;;25.98;42.36;100571.41;4975650;28;20038;-66
2022/05/13 10:18:07;;;;;;;7.20;1.20;;;;;;;25.91;44.54;100575.66;4960884;28;20023;-66
2022/05/13 10:20:38;;;;;;;3.53;0.93;;;;;;;25.54;41.60;100574.38;4955991;29;20031;-66
2022/05/13 10:23:10;;;;;;;3.28;1.00;;;;;;;25.26;43.33;100577.69;4955667;29;20061;-66
2022/05/13 10:25:45;;;;;;;4.07;0.90;;;;;;;25.08;42.45;100575.63;4955612;29;20034;-66
2022/05/13 10:28:14;;;;;;;3.92;1.05;;;;;;;25.12;43.90;100575.28;4955691;29;20081;-66
2022/05/13 10:30:54;;;;;;;6.15;1.38;;;;;;;24.97;43.33;100576.53;4967111;28;20027;-66
2022/05/13 10:33:33;;;;;;;5.20;1.05;;;;;;;25.30;44.69;100573.72;4977320;28;20057;-66
2022/05/13 10:36:08;;;;;;;3.60;0.82;;;;;;;25.77;43.47;100573.28;4974906;28;20034;-66
2022/05/13 10:38:43;;;;;;;1.60;0.90;;;;;;;25.83;42.05;100572.72;4957688;28;20030;-66
2022/05/13 10:41:17;;;;;;;2.85;1.13;;;;;;;25.63;42.71;100573.56;4974732;28;20114;-67
2022/05/13 10:43:54;;;;;;;3.63;0.93;;;;;;;25.72;41.22;100566.47;4974632;28;20054;-66
2022/05/13 10:46:25;;;;;;;2.78;1.00;;;;;;;26.53;42.68;100575.59;4974306;28;20105;-66
2022/05/13 10:49:13;;;;;;;5.15;0.90;;;;;;;27.43;40.42;100571.81;4975102;28;20022;-66
2022/05/13 10:51:53;;;;;;;2.10;0.80;;;;;;;28.45;39.99;100564.59;4956666;28;20034;-66
2022/05/13 10:54:18;;;;;;;3.28;1.17;;;;;;;29.01;38.46;100566.38;4955388;29;20091;-66
2022/05/13 10:57:08;;;;;;;1.33;0.57;;;;;;;29.51;37.06;100564.88;4955142;29;20135;-66
2022/05/13 11:00:13;;;;;;;2.95;1.55;;;;;;;29.85;35.33;100563.16;4957686;28;20031;-66
2022/05/13 11:03:12;;;;;;;4.63;0.88;;;;;;;29.72;35.21;100562.69;4952120;28;20050;-66
2022/05/13 11:05:56;;;;;;;3.00;0.70;;;;;;;28.80;36.82;100565.78;4974486;28;20034;-66
2022/05/13 11:08:31;;;;;;;2.17;0.82;;;;;;;28.19;38.19;100549.88;4974498;28;20026;-66
2022/05/13 11:11:13;;;;;;;5.03;1.15;;;;;;;28.34;37.24;100555.72;4974019;28;20039;-66
2022/05/13 11:14:09;;;;;;;4.85;1.27;;;;;;;28.94;38.88;100555.19;4973580;28;20030;-66
2022/05/13 11:16:49;;;;;;;4.10;0.85;;;;;;;29.05;36.83;100557.69;4970823;28;20490;-66
2022/05/13 11:19:26;;;;;;;1.50;0.85;;;;;;;29.56;37.66;100546.94;4969153;28;20018;-66
2022/05/13 11:22:13;;;;;;;5.20;0.80;;;;;;;30.15;35.42;100548.97;4957263;28;20037;-66
2022/05/13 11:28:34;;;;;;;2.13;0.70;;;;;;;31.56;35.11;100539.94;4974410;28;20073;-66
2022/05/13 11:31:28;;;;;;;2.83;0.80;;;;;;;31.84;35.27;100546.81;4973680;28;20039;-65
2022/05/13 11:34:02;;;;;;;3.17;0.70;;;;;;;31.60;34.09;100544.03;4973754;28;20454;-65
2022/05/13 11:36:55;;;;;;;2.88;0.77;;;;;;;31.44;33.44;100533.03;4974052;28;20041;-65
2022/05/13 11:39:24;;;;;;;4.90;1.02;;;;;;;31.33;33.73;100539.75;4973758;28;20031;-65
2022/05/13 11:41:53;;;;;;;3.92;0.90;;;;;;;31.33;34.44;100541.63;4973478;28;20400;-66
2022/05/13 11:44:28;;;;;;;2.47;0.68;;;;;;;31.62;33.57;100526.34;4973499;28;20557;-65
2022/05/13 11:47:27;;;;;;;4.43;0.98;;;;;;;31.82;33.18;100537.88;4973315;28;20089;-65
2022/05/13 11:49:57;;;;;;;2.45;0.80;;;;;;;31.67;34.55;100531.34;4984423;28;20038;-66
2022/05/13 11:52:42;;;;;;;1.55;0.80;;;;;;;31.55;34.69;100535.47;4973055;28;20031;-66
2022/05/13 11:55:18;;;;;;;3.75;0.90;;;;;;;31.53;32.09;100537.53;4973471;28;20026;-66
2022/05/13 11:57:52;;;;;;;2.03;0.70;;;;;;;30.84;32.81;100535.16;4956290;28;20166;-66
2022/05/13 12:00:20;;;;;;;1.58;0.73;;;;;;;31.18;34.20;100521.28;4965029;28;20026;-66